sensor_id;sensor_type;location;lat;lon;timestamp;P1;durP1;ratioP1;P2;durP2;ratioP2
35324;SDS011;35135;47.510;19.036;2023-04-09T00:01:21;6.82;;;6.13;;
35324;SDS011;35135;47.510;19.036;2023-04-09T00:03:47;6.45;;;5.80;;
35324;SDS011;35135;47.510;19.036;2023-04-09T00:06:12;7.05;;;6.10;;
35324;SDS011;35135;47.510;19.036;2023-04-09T00:08:38;6.32;;;5.47;;
35324;SDS011;35135;47.510;19.036;2023-04-09T00:11:04;6.53;;;5.93;;
35324;SDS011;35135;47.510;19.036;2023-04-09T00:13:30;7.07;;;5.75;;
35324;SDS011;35135;47.510;19.036;2023-04-09T00:15:55;6.60;;;5.88;;
35324;SDS011;35135;47.510;19.036;2023-04-09T00:18:21;6.10;;;5.50;;
35324;SDS011;35135;47.510;19.036;2023-04-09T00:20:47;6.57;;;5.88;;
35324;SDS011;35135;47.510;19.036;2023-04-09T00:23:12;5.82;;;5.32;;
35324;SDS011;35135;47.510;19.036;2023-04-09T00:25:38;6.13;;;5.38;;
35324;SDS011;35135;47.510;19.036;2023-04-09T00:28:03;5.70;;;5.13;;
35324;SDS011;35135;47.510;19.036;2023-04-09T00:30:30;7.15;;;5.60;;
35324;SDS011;35135;47.510;19.036;2023-04-09T00:32:56;5.97;;;5.15;;
35324;SDS011;35135;47.510;19.036;2023-04-09T00:35:22;6.13;;;5.28;;
35324;SDS011;35135;47.510;19.036;2023-04-09T00:37:48;6.03;;;4.95;;
35324;SDS011;35135;47.510;19.036;2023-04-09T00:40:13;6.15;;;5.40;;
35324;SDS011;35135;47.510;19.036;2023-04-09T00:42:39;6.13;;;5.10;;
35324;SDS011;35135;47.510;19.036;2023-04-09T00:45:06;6.22;;;5.28;;
35324;SDS011;35135;47.510;19.036;2023-04-09T00:47:32;5.75;;;5.15;;
35324;SDS011;35135;47.510;19.036;2023-04-09T00:49:59;6.13;;;4.82;;
35324;SDS011;35135;47.510;19.036;2023-04-09T00:52:26;6.35;;;5.75;;
35324;SDS011;35135;47.510;19.036;2023-04-09T00:54:54;5.10;;;4.60;;
35324;SDS011;35135;47.510;19.036;2023-04-09T00:57:22;6.20;;;5.03;;
35324;SDS011;35135;47.510;19.036;2023-04-09T00:59:48;5.72;;;5.13;;
35324;SDS011;35135;47.510;19.036;2023-04-09T01:02:14;5.15;;;4.70;;
35324;SDS011;35135;47.510;19.036;2023-04-09T01:04:40;6.57;;;5.35;;
35324;SDS011;35135;47.510;19.036;2023-04-09T01:15:43;5.05;;;4.47;;
35324;SDS011;35135;47.510;19.036;2023-04-09T01:18:27;5.00;;;4.53;;
35324;SDS011;35135;47.510;19.036;2023-04-09T01:21:16;5.63;;;4.93;;
35324;SDS011;35135;47.510;19.036;2023-04-09T01:28:57;4.68;;;4.20;;
35324;SDS011;35135;47.510;19.036;2023-04-09T01:31:35;5.00;;;4.50;;
35324;SDS011;35135;47.510;19.036;2023-04-09T01:34:03;4.95;;;4.43;;
35324;SDS011;35135;47.510;19.036;2023-04-09T01:36:31;4.47;;;4.07;;
35324;SDS011;35135;47.510;19.036;2023-04-09T01:38:59;4.60;;;4.20;;
35324;SDS011;35135;47.510;19.036;2023-04-09T01:41:26;5.10;;;4.60;;
35324;SDS011;35135;47.510;19.036;2023-04-09T01:43:54;4.22;;;3.85;;
35324;SDS011;35135;47.510;19.036;2023-04-09T01:46:20;4.40;;;4.00;;
35324;SDS011;35135;47.510;19.036;2023-04-09T01:48:47;5.28;;;4.43;;
35324;SDS011;35135;47.510;19.036;2023-04-09T01:51:13;5.35;;;4.85;;
35324;SDS011;35135;47.510;19.036;2023-04-09T01:53:40;4.80;;;4.25;;
35324;SDS011;35135;47.510;19.036;2023-04-09T01:56:06;4.30;;;3.90;;
35324;SDS011;35135;47.510;19.036;2023-04-09T01:58:33;4.93;;;4.53;;
35324;SDS011;35135;47.510;19.036;2023-04-09T02:01:02;4.30;;;3.90;;
35324;SDS011;35135;47.510;19.036;2023-04-09T02:03:53;4.93;;;4.43;;
35324;SDS011;35135;47.510;19.036;2023-04-09T02:09:06;4.40;;;4.00;;
35324;SDS011;35135;47.510;19.036;2023-04-09T02:11:33;3.88;;;3.58;;
35324;SDS011;35135;47.510;19.036;2023-04-09T02:14:06;4.63;;;4.22;;
35324;SDS011;35135;47.510;19.036;2023-04-09T02:16:35;4.55;;;4.05;;
35324;SDS011;35135;47.510;19.036;2023-04-09T02:19:01;4.63;;;4.22;;
35324;SDS011;35135;47.510;19.036;2023-04-09T02:21:27;4.95;;;4.20;;
35324;SDS011;35135;47.510;19.036;2023-04-09T02:23:54;4.10;;;3.70;;
35324;SDS011;35135;47.510;19.036;2023-04-09T02:26:20;4.72;;;4.22;;
35324;SDS011;35135;47.510;19.036;2023-04-09T02:28:46;4.60;;;4.20;;
35324;SDS011;35135;47.510;19.036;2023-04-09T02:31:12;4.10;;;3.70;;
35324;SDS011;35135;47.510;19.036;2023-04-09T02:33:38;4.60;;;4.20;;
35324;SDS011;35135;47.510;19.036;2023-04-09T02:36:04;4.90;;;4.40;;
35324;SDS011;35135;47.510;19.036;2023-04-09T02:38:30;5.22;;;4.25;;
35324;SDS011;35135;47.510;19.036;2023-04-09T02:40:56;4.40;;;4.00;;
35324;SDS011;35135;47.510;19.036;2023-04-09T02:43:21;4.30;;;3.90;;
35324;SDS011;35135;47.510;19.036;2023-04-09T02:45:47;4.30;;;3.90;;
35324;SDS011;35135;47.510;19.036;2023-04-09T02:48:13;4.07;;;3.67;;
35324;SDS011;35135;47.510;19.036;2023-04-09T02:50:39;4.50;;;4.10;;
35324;SDS011;35135;47.510;19.036;2023-04-09T02:53:04;4.30;;;3.88;;
35324;SDS011;35135;47.510;19.036;2023-04-09T02:55:30;4.47;;;4.07;;
35324;SDS011;35135;47.510;19.036;2023-04-09T02:57:56;4.30;;;3.90;;
35324;SDS011;35135;47.510;19.036;2023-04-09T03:00:22;4.07;;;3.58;;
35324;SDS011;35135;47.510;19.036;2023-04-09T03:02:47;4.20;;;3.85;;
35324;SDS011;35135;47.510;19.036;2023-04-09T03:05:13;3.88;;;3.50;;
35324;SDS011;35135;47.510;19.036;2023-04-09T03:07:38;4.22;;;3.70;;
35324;SDS011;35135;47.510;19.036;2023-04-09T03:10:04;4.13;;;3.50;;
35324;SDS011;35135;47.510;19.036;2023-04-09T03:12:30;3.88;;;3.50;;
35324;SDS011;35135;47.510;19.036;2023-04-09T03:14:56;4.32;;;3.92;;
35324;SDS011;35135;47.510;19.036;2023-04-09T03:17:22;4.25;;;3.85;;
35324;SDS011;35135;47.510;19.036;2023-04-09T03:19:51;4.00;;;3.60;;
35324;SDS011;35135;47.510;19.036;2023-04-09T03:22:17;3.88;;;3.58;;
35324;SDS011;35135;47.510;19.036;2023-04-09T03:24:42;4.13;;;3.72;;
35324;SDS011;35135;47.510;19.036;2023-04-09T03:27:08;5.00;;;4.07;;
35324;SDS011;35135;47.510;19.036;2023-04-09T03:29:34;4.35;;;3.95;;
35324;SDS011;35135;47.510;19.036;2023-04-09T03:32:00;4.32;;;3.92;;
35324;SDS011;35135;47.510;19.036;2023-04-09T03:34:25;4.35;;;3.95;;
35324;SDS011;35135;47.510;19.036;2023-04-09T03:36:51;3.97;;;3.67;;
35324;SDS011;35135;47.510;19.036;2023-04-09T03:39:17;4.13;;;3.72;;
35324;SDS011;35135;47.510;19.036;2023-04-09T03:41:42;4.47;;;4.07;;
35324;SDS011;35135;47.510;19.036;2023-04-09T03:44:08;3.88;;;3.47;;
35324;SDS011;35135;47.510;19.036;2023-04-09T03:46:34;4.45;;;4.05;;
35324;SDS011;35135;47.510;19.036;2023-04-09T03:48:59;4.05;;;3.65;;
35324;SDS011;35135;47.510;19.036;2023-04-09T03:51:25;3.80;;;3.47;;
35324;SDS011;35135;47.510;19.036;2023-04-09T03:53:51;4.00;;;3.60;;
35324;SDS011;35135;47.510;19.036;2023-04-09T03:56:17;3.80;;;3.50;;
35324;SDS011;35135;47.510;19.036;2023-04-09T03:58:42;4.22;;;3.83;;
35324;SDS011;35135;47.510;19.036;2023-04-09T04:01:08;4.15;;;3.75;;
35324;SDS011;35135;47.510;19.036;2023-04-09T04:03:34;4.00;;;3.60;;
35324;SDS011;35135;47.510;19.036;2023-04-09T04:06:02;4.30;;;3.88;;
35324;SDS011;35135;47.510;19.036;2023-04-09T04:08:28;5.63;;;4.25;;
35324;SDS011;35135;47.510;19.036;2023-04-09T04:10:54;4.30;;;3.90;;
35324;SDS011;35135;47.510;19.036;2023-04-09T04:13:20;4.45;;;4.05;;
35324;SDS011;35135;47.510;19.036;2023-04-09T04:15:45;4.45;;;4.05;;
35324;SDS011;35135;47.510;19.036;2023-04-09T04:18:11;4.15;;;3.75;;
35324;SDS011;35135;47.510;19.036;2023-04-09T04:20:37;4.43;;;4.03;;
35324;SDS011;35135;47.510;19.036;2023-04-09T04:23:04;4.35;;;3.58;;
35324;SDS011;35135;47.510;19.036;2023-04-09T04:25:30;4.00;;;3.55;;
35324;SDS011;35135;47.510;19.036;2023-04-09T04:27:56;4.28;;;3.88;;
35324;SDS011;35135;47.510;19.036;2023-04-09T04:30:22;5.45;;;4.13;;
35324;SDS011;35135;47.510;19.036;2023-04-09T04:32:48;4.35;;;3.95;;
35324;SDS011;35135;47.510;19.036;2023-04-09T04:35:14;4.90;;;4.45;;
35324;SDS011;35135;47.510;19.036;2023-04-09T04:37:41;3.63;;;3.28;;
35324;SDS011;35135;47.510;19.036;2023-04-09T04:40:07;3.67;;;3.30;;
35324;SDS011;35135;47.510;19.036;2023-04-09T04:42:33;4.00;;;3.63;;
35324;SDS011;35135;47.510;19.036;2023-04-09T04:44:59;4.20;;;3.80;;
35324;SDS011;35135;47.510;19.036;2023-04-09T04:47:25;4.20;;;3.80;;
35324;SDS011;35135;47.510;19.036;2023-04-09T04:49:51;5.18;;;4.03;;
35324;SDS011;35135;47.510;19.036;2023-04-09T04:52:16;4.57;;;4.18;;
35324;SDS011;35135;47.510;19.036;2023-04-09T04:54:42;4.13;;;3.70;;
35324;SDS011;35135;47.510;19.036;2023-04-09T04:57:08;4.13;;;3.80;;
35324;SDS011;35135;47.510;19.036;2023-04-09T04:59:37;4.40;;;3.90;;
35324;SDS011;35135;47.510;19.036;2023-04-09T05:02:04;3.90;;;3.50;;
35324;SDS011;35135;47.510;19.036;2023-04-09T05:04:32;3.95;;;3.55;;
35324;SDS011;35135;47.510;19.036;2023-04-09T05:06:58;4.72;;;4.32;;
35324;SDS011;35135;47.510;19.036;2023-04-09T05:09:24;4.72;;;3.67;;
35324;SDS011;35135;47.510;19.036;2023-04-09T05:11:50;5.45;;;4.75;;
35324;SDS011;35135;47.510;19.036;2023-04-09T05:14:15;6.35;;;4.50;;
35324;SDS011;35135;47.510;19.036;2023-04-09T05:16:41;4.93;;;4.32;;
35324;SDS011;35135;47.510;19.036;2023-04-09T05:19:07;5.05;;;4.50;;
35324;SDS011;35135;47.510;19.036;2023-04-09T05:21:32;4.95;;;4.47;;
35324;SDS011;35135;47.510;19.036;2023-04-09T05:23:58;6.53;;;5.22;;
35324;SDS011;35135;47.510;19.036;2023-04-09T05:26:24;7.60;;;5.60;;
35324;SDS011;35135;47.510;19.036;2023-04-09T05:28:51;6.43;;;5.65;;
35324;SDS011;35135;47.510;19.036;2023-04-09T05:31:17;17.25;;;13.88;;
35324;SDS011;35135;47.510;19.036;2023-04-09T05:33:42;14.02;;;12.65;;
35324;SDS011;35135;47.510;19.036;2023-04-09T05:36:13;30.02;;;27.30;;
35324;SDS011;35135;47.510;19.036;2023-04-09T05:38:42;104.43;;;96.10;;
35324;SDS011;35135;47.510;19.036;2023-04-09T05:41:10;159.23;;;146.13;;
35324;SDS011;35135;47.510;19.036;2023-04-09T05:43:35;271.63;;;249.57;;
35324;SDS011;35135;47.510;19.036;2023-04-09T05:46:01;352.10;;;323.58;;
35324;SDS011;35135;47.510;19.036;2023-04-09T05:48:27;307.38;;;282.95;;
35324;SDS011;35135;47.510;19.036;2023-04-09T05:50:52;309.85;;;285.20;;
35324;SDS011;35135;47.510;19.036;2023-04-09T05:53:18;339.55;;;312.17;;
35324;SDS011;35135;47.510;19.036;2023-04-09T05:55:44;346.70;;;318.73;;
35324;SDS011;35135;47.510;19.036;2023-04-09T05:58:10;337.67;;;310.70;;
35324;SDS011;35135;47.510;19.036;2023-04-09T06:00:37;326.30;;;300.25;;
35324;SDS011;35135;47.510;19.036;2023-04-09T06:03:03;322.00;;;296.30;;
35324;SDS011;35135;47.510;19.036;2023-04-09T06:05:29;308.35;;;284.13;;
35324;SDS011;35135;47.510;19.036;2023-04-09T06:07:55;307.70;;;283.30;;
35324;SDS011;35135;47.510;19.036;2023-04-09T06:10:21;314.27;;;289.30;;
35324;SDS011;35135;47.510;19.036;2023-04-09T06:12:47;308.15;;;284.08;;
35324;SDS011;35135;47.510;19.036;2023-04-09T06:15:12;307.25;;;283.05;;
35324;SDS011;35135;47.510;19.036;2023-04-09T06:17:38;300.92;;;277.23;;
35324;SDS011;35135;47.510;19.036;2023-04-09T06:20:04;284.35;;;261.65;;
35324;SDS011;35135;47.510;19.036;2023-04-09T06:22:30;285.30;;;262.73;;
35324;SDS011;35135;47.510;19.036;2023-04-09T06:24:56;265.40;;;244.15;;
35324;SDS011;35135;47.510;19.036;2023-04-09T06:27:22;264.73;;;243.68;;
35324;SDS011;35135;47.510;19.036;2023-04-09T06:29:47;252.82;;;232.77;;
35324;SDS011;35135;47.510;19.036;2023-04-09T06:32:13;248.52;;;228.80;;
35324;SDS011;35135;47.510;19.036;2023-04-09T06:34:39;245.95;;;226.77;;
35324;SDS011;35135;47.510;19.036;2023-04-09T06:37:04;239.45;;;220.48;;
35324;SDS011;35135;47.510;19.036;2023-04-09T06:39:30;232.70;;;214.25;;
35324;SDS011;35135;47.510;19.036;2023-04-09T06:41:57;217.60;;;200.43;;
35324;SDS011;35135;47.510;19.036;2023-04-09T06:44:22;223.07;;;205.48;;
35324;SDS011;35135;47.510;19.036;2023-04-09T06:46:48;207.77;;;191.07;;
35324;SDS011;35135;47.510;19.036;2023-04-09T06:49:14;195.45;;;179.77;;
35324;SDS011;35135;47.510;19.036;2023-04-09T06:51:40;191.65;;;176.25;;
35324;SDS011;35135;47.510;19.036;2023-04-09T06:54:06;191.65;;;176.30;;
35324;SDS011;35135;47.510;19.036;2023-04-09T06:56:32;184.60;;;169.60;;
35324;SDS011;35135;47.510;19.036;2023-04-09T06:59:00;178.48;;;164.02;;
35324;SDS011;35135;47.510;19.036;2023-04-09T07:01:26;176.43;;;162.23;;
35324;SDS011;35135;47.510;19.036;2023-04-09T07:03:52;170.82;;;157.13;;
35324;SDS011;35135;47.510;19.036;2023-04-09T07:06:25;167.75;;;154.23;;
35324;SDS011;35135;47.510;19.036;2023-04-09T07:09:16;164.40;;;150.90;;
35324;SDS011;35135;47.510;19.036;2023-04-09T07:11:46;159.30;;;146.38;;
35324;SDS011;35135;47.510;19.036;2023-04-09T07:14:11;158.10;;;145.23;;
35324;SDS011;35135;47.510;19.036;2023-04-09T07:16:37;151.95;;;139.70;;
35324;SDS011;35135;47.510;19.036;2023-04-09T07:19:03;152.23;;;139.88;;
35324;SDS011;35135;47.510;19.036;2023-04-09T07:21:30;149.07;;;136.93;;
35324;SDS011;35135;47.510;19.036;2023-04-09T07:23:56;149.13;;;137.02;;
35324;SDS011;35135;47.510;19.036;2023-04-09T07:26:22;142.07;;;130.63;;
35324;SDS011;35135;47.510;19.036;2023-04-09T07:28:47;140.52;;;129.07;;
35324;SDS011;35135;47.510;19.036;2023-04-09T07:31:13;137.85;;;126.80;;
35324;SDS011;35135;47.510;19.036;2023-04-09T07:33:39;137.35;;;126.25;;
35324;SDS011;35135;47.510;19.036;2023-04-09T07:36:04;135.52;;;124.63;;
35324;SDS011;35135;47.510;19.036;2023-04-09T07:38:30;131.75;;;121.20;;
35324;SDS011;35135;47.510;19.036;2023-04-09T07:40:57;126.85;;;116.65;;
35324;SDS011;35135;47.510;19.036;2023-04-09T07:43:22;121.88;;;111.90;;
35324;SDS011;35135;47.510;19.036;2023-04-09T07:45:48;120.78;;;110.18;;
35324;SDS011;35135;47.510;19.036;2023-04-09T07:48:15;119.85;;;110.05;;
35324;SDS011;35135;47.510;19.036;2023-04-09T07:50:41;118.22;;;108.50;;
35324;SDS011;35135;47.510;19.036;2023-04-09T07:53:09;107.82;;;99.15;;
35324;SDS011;35135;47.510;19.036;2023-04-09T07:55:35;107.53;;;98.68;;
35324;SDS011;35135;47.510;19.036;2023-04-09T07:58:01;106.40;;;97.90;;
35324;SDS011;35135;47.510;19.036;2023-04-09T08:00:28;103.70;;;95.07;;
35324;SDS011;35135;47.510;19.036;2023-04-09T08:02:54;101.53;;;93.15;;
35324;SDS011;35135;47.510;19.036;2023-04-09T08:05:21;95.43;;;87.78;;
35324;SDS011;35135;47.510;19.036;2023-04-09T08:07:47;96.10;;;88.13;;
35324;SDS011;35135;47.510;19.036;2023-04-09T08:10:14;98.95;;;89.63;;
35324;SDS011;35135;47.510;19.036;2023-04-09T08:12:40;90.55;;;83.25;;
35324;SDS011;35135;47.510;19.036;2023-04-09T08:15:06;90.70;;;83.22;;
35324;SDS011;35135;47.510;19.036;2023-04-09T08:17:32;88.60;;;81.40;;
35324;SDS011;35135;47.510;19.036;2023-04-09T08:19:58;92.43;;;85.03;;
35324;SDS011;35135;47.510;19.036;2023-04-09T08:22:23;86.47;;;79.55;;
35324;SDS011;35135;47.510;19.036;2023-04-09T08:24:50;82.63;;;75.95;;
35324;SDS011;35135;47.510;19.036;2023-04-09T08:27:16;81.72;;;75.15;;
35324;SDS011;35135;47.510;19.036;2023-04-09T08:29:42;78.97;;;72.55;;
35324;SDS011;35135;47.510;19.036;2023-04-09T08:32:08;76.68;;;70.47;;
35324;SDS011;35135;47.510;19.036;2023-04-09T08:34:34;76.25;;;70.07;;
35324;SDS011;35135;47.510;19.036;2023-04-09T08:37:00;73.63;;;67.53;;
35324;SDS011;35135;47.510;19.036;2023-04-09T08:39:26;70.90;;;65.10;;
35324;SDS011;35135;47.510;19.036;2023-04-09T08:41:52;71.70;;;65.88;;
35324;SDS011;35135;47.510;19.036;2023-04-09T08:44:23;69.25;;;63.53;;
35324;SDS011;35135;47.510;19.036;2023-04-09T08:46:50;67.35;;;61.85;;
35324;SDS011;35135;47.510;19.036;2023-04-09T08:49:16;67.57;;;62.08;;
35324;SDS011;35135;47.510;19.036;2023-04-09T08:51:45;64.57;;;59.28;;
35324;SDS011;35135;47.510;19.036;2023-04-09T08:54:14;61.55;;;56.58;;
35324;SDS011;35135;47.510;19.036;2023-04-09T08:56:47;62.03;;;56.97;;
35324;SDS011;35135;47.510;19.036;2023-04-09T08:59:16;60.45;;;55.45;;
35324;SDS011;35135;47.510;19.036;2023-04-09T09:01:42;60.45;;;55.55;;
35324;SDS011;35135;47.510;19.036;2023-04-09T09:04:10;60.50;;;55.45;;
35324;SDS011;35135;47.510;19.036;2023-04-09T09:06:37;59.55;;;54.65;;
35324;SDS011;35135;47.510;19.036;2023-04-09T09:11:37;58.13;;;53.30;;
35324;SDS011;35135;47.510;19.036;2023-04-09T09:14:08;54.67;;;50.28;;
35324;SDS011;35135;47.510;19.036;2023-04-09T09:16:34;53.13;;;48.78;;
35324;SDS011;35135;47.510;19.036;2023-04-09T09:19:04;52.88;;;48.58;;
35324;SDS011;35135;47.510;19.036;2023-04-09T09:21:30;52.53;;;48.33;;
35324;SDS011;35135;47.510;19.036;2023-04-09T09:23:57;52.50;;;48.20;;
35324;SDS011;35135;47.510;19.036;2023-04-09T09:26:26;51.53;;;47.30;;
35324;SDS011;35135;47.510;19.036;2023-04-09T09:28:54;50.78;;;46.58;;
35324;SDS011;35135;47.510;19.036;2023-04-09T09:31:22;48.85;;;44.95;;
35324;SDS011;35135;47.510;19.036;2023-04-09T09:33:49;48.40;;;44.40;;
35324;SDS011;35135;47.510;19.036;2023-04-09T09:36:28;47.67;;;43.90;;
35324;SDS011;35135;47.510;19.036;2023-04-09T09:38:56;47.72;;;43.83;;
35324;SDS011;35135;47.510;19.036;2023-04-09T09:41:23;48.10;;;44.20;;
35324;SDS011;35135;47.510;19.036;2023-04-09T09:43:50;44.58;;;40.92;;
35324;SDS011;35135;47.510;19.036;2023-04-09T09:46:15;44.00;;;40.47;;
35324;SDS011;35135;47.510;19.036;2023-04-09T09:48:42;43.95;;;40.35;;
35324;SDS011;35135;47.510;19.036;2023-04-09T09:51:11;41.95;;;38.55;;
35324;SDS011;35135;47.510;19.036;2023-04-09T09:53:38;43.25;;;39.75;;
35324;SDS011;35135;47.510;19.036;2023-04-09T09:56:06;40.88;;;37.58;;
35324;SDS011;35135;47.510;19.036;2023-04-09T09:58:37;40.72;;;37.45;;
35324;SDS011;35135;47.510;19.036;2023-04-09T10:01:08;40.47;;;37.30;;
35324;SDS011;35135;47.510;19.036;2023-04-09T10:03:36;40.17;;;36.97;;
35324;SDS011;35135;47.510;19.036;2023-04-09T10:06:04;40.35;;;37.15;;
35324;SDS011;35135;47.510;19.036;2023-04-09T10:08:33;38.50;;;35.42;;
35324;SDS011;35135;47.510;19.036;2023-04-09T10:11:01;39.00;;;35.80;;
35324;SDS011;35135;47.510;19.036;2023-04-09T10:13:29;37.83;;;34.88;;
35324;SDS011;35135;47.510;19.036;2023-04-09T10:16:19;36.60;;;33.72;;
35324;SDS011;35135;47.510;19.036;2023-04-09T10:18:47;36.00;;;33.13;;
35324;SDS011;35135;47.510;19.036;2023-04-09T10:24:09;33.63;;;31.02;;
35324;SDS011;35135;47.510;19.036;2023-04-09T10:26:38;33.38;;;30.67;;
35324;SDS011;35135;47.510;19.036;2023-04-09T10:29:05;34.90;;;32.10;;
35324;SDS011;35135;47.510;19.036;2023-04-09T10:31:46;34.53;;;31.75;;
35324;SDS011;35135;47.510;19.036;2023-04-09T10:34:20;33.03;;;30.33;;
35324;SDS011;35135;47.510;19.036;2023-04-09T10:36:51;32.20;;;29.65;;
35324;SDS011;35135;47.510;19.036;2023-04-09T10:39:19;31.65;;;29.10;;
35324;SDS011;35135;47.510;19.036;2023-04-09T10:41:45;30.83;;;28.42;;
35324;SDS011;35135;47.510;19.036;2023-04-09T10:44:19;32.20;;;29.70;;
35324;SDS011;35135;47.510;19.036;2023-04-09T10:46:46;30.05;;;27.73;;
35324;SDS011;35135;47.510;19.036;2023-04-09T10:49:18;29.08;;;26.83;;
35324;SDS011;35135;47.510;19.036;2023-04-09T11:02:09;28.05;;;25.75;;
35324;SDS011;35135;47.510;19.036;2023-04-09T11:07:43;26.58;;;24.40;;
35324;SDS011;35135;47.510;19.036;2023-04-09T11:10:12;25.73;;;23.73;;
35324;SDS011;35135;47.510;19.036;2023-04-09T11:12:38;26.25;;;24.15;;
35324;SDS011;35135;47.510;19.036;2023-04-09T11:15:04;25.38;;;23.38;;
35324;SDS011;35135;47.510;19.036;2023-04-09T11:17:34;25.10;;;23.10;;
35324;SDS011;35135;47.510;19.036;2023-04-09T11:20:01;24.40;;;22.40;;
35324;SDS011;35135;47.510;19.036;2023-04-09T11:22:27;24.58;;;22.58;;
35324;SDS011;35135;47.510;19.036;2023-04-09T11:24:53;24.40;;;22.50;;
35324;SDS011;35135;47.510;19.036;2023-04-09T11:27:19;23.75;;;21.75;;
35324;SDS011;35135;47.510;19.036;2023-04-09T11:29:45;24.70;;;22.70;;
35324;SDS011;35135;47.510;19.036;2023-04-09T11:32:11;23.17;;;21.27;;
35324;SDS011;35135;47.510;19.036;2023-04-09T11:34:37;21.83;;;20.13;;
35324;SDS011;35135;47.510;19.036;2023-04-09T11:37:03;22.98;;;21.17;;
35324;SDS011;35135;47.510;19.036;2023-04-09T11:39:35;22.95;;;21.15;;
35324;SDS011;35135;47.510;19.036;2023-04-09T11:42:01;22.52;;;20.80;;
35324;SDS011;35135;47.510;19.036;2023-04-09T11:44:27;21.60;;;19.88;;
35324;SDS011;35135;47.510;19.036;2023-04-09T11:46:54;22.08;;;20.38;;
35324;SDS011;35135;47.510;19.036;2023-04-09T11:49:21;21.30;;;19.60;;
35324;SDS011;35135;47.510;19.036;2023-04-09T11:51:47;20.48;;;18.88;;
35324;SDS011;35135;47.510;19.036;2023-04-09T11:54:14;20.70;;;19.05;;
35324;SDS011;35135;47.510;19.036;2023-04-09T11:56:40;20.60;;;19.00;;
35324;SDS011;35135;47.510;19.036;2023-04-09T11:59:06;19.48;;;17.98;;
35324;SDS011;35135;47.510;19.036;2023-04-09T12:01:32;19.95;;;18.35;;
35324;SDS011;35135;47.510;19.036;2023-04-09T12:03:58;19.35;;;17.85;;
35324;SDS011;35135;47.510;19.036;2023-04-09T12:06:24;20.00;;;18.40;;
35324;SDS011;35135;47.510;19.036;2023-04-09T12:08:54;19.40;;;17.80;;
35324;SDS011;35135;47.510;19.036;2023-04-09T12:11:29;19.05;;;17.55;;
35324;SDS011;35135;47.510;19.036;2023-04-09T12:14:01;17.90;;;16.50;;
35324;SDS011;35135;47.510;19.036;2023-04-09T12:16:32;17.88;;;16.48;;
35324;SDS011;35135;47.510;19.036;2023-04-09T12:18:59;18.00;;;16.60;;
35324;SDS011;35135;47.510;19.036;2023-04-09T12:24:13;16.90;;;15.57;;
35324;SDS011;35135;47.510;19.036;2023-04-09T12:26:39;16.63;;;15.32;;
35324;SDS011;35135;47.510;19.036;2023-04-09T12:29:05;16.65;;;15.35;;
35324;SDS011;35135;47.510;19.036;2023-04-09T12:31:31;17.55;;;16.15;;
35324;SDS011;35135;47.510;19.036;2023-04-09T12:33:57;16.45;;;15.25;;
35324;SDS011;35135;47.510;19.036;2023-04-09T12:36:22;16.98;;;15.57;;
35324;SDS011;35135;47.510;19.036;2023-04-09T12:38:48;15.27;;;14.07;;
35324;SDS011;35135;47.510;19.036;2023-04-09T12:41:15;15.90;;;14.68;;
35324;SDS011;35135;47.510;19.036;2023-04-09T12:43:40;15.52;;;14.32;;
35324;SDS011;35135;47.510;19.036;2023-04-09T12:46:09;15.90;;;14.70;;
35324;SDS011;35135;47.510;19.036;2023-04-09T12:48:35;15.93;;;14.70;;
35324;SDS011;35135;47.510;19.036;2023-04-09T12:51:01;15.13;;;13.90;;
35324;SDS011;35135;47.510;19.036;2023-04-09T12:53:27;15.45;;;14.25;;
35324;SDS011;35135;47.510;19.036;2023-04-09T12:55:53;14.73;;;13.55;;
35324;SDS011;35135;47.510;19.036;2023-04-09T12:58:18;14.63;;;13.52;;
35324;SDS011;35135;47.510;19.036;2023-04-09T13:00:44;14.75;;;13.55;;
35324;SDS011;35135;47.510;19.036;2023-04-09T13:03:10;14.95;;;13.75;;
35324;SDS011;35135;47.510;19.036;2023-04-09T13:05:36;14.43;;;13.32;;
35324;SDS011;35135;47.510;19.036;2023-04-09T13:08:02;14.25;;;13.15;;
35324;SDS011;35135;47.510;19.036;2023-04-09T13:10:28;13.60;;;12.52;;
35324;SDS011;35135;47.510;19.036;2023-04-09T13:12:57;14.02;;;12.93;;
35324;SDS011;35135;47.510;19.036;2023-04-09T13:15:22;13.60;;;12.50;;
35324;SDS011;35135;47.510;19.036;2023-04-09T13:17:48;13.23;;;12.23;;
35324;SDS011;35135;47.510;19.036;2023-04-09T13:20:14;12.85;;;11.85;;
35324;SDS011;35135;47.510;19.036;2023-04-09T13:22:40;12.90;;;11.90;;
35324;SDS011;35135;47.510;19.036;2023-04-09T13:25:05;12.75;;;11.75;;
35324;SDS011;35135;47.510;19.036;2023-04-09T13:27:31;12.43;;;11.43;;
35324;SDS011;35135;47.510;19.036;2023-04-09T13:29:57;12.63;;;11.63;;
35324;SDS011;35135;47.510;19.036;2023-04-09T13:32:22;12.45;;;11.55;;
35324;SDS011;35135;47.510;19.036;2023-04-09T13:34:48;12.52;;;11.52;;
35324;SDS011;35135;47.510;19.036;2023-04-09T13:37:15;12.45;;;11.45;;
35324;SDS011;35135;47.510;19.036;2023-04-09T13:39:40;12.30;;;11.35;;
35324;SDS011;35135;47.510;19.036;2023-04-09T13:42:06;12.18;;;11.18;;
35324;SDS011;35135;47.510;19.036;2023-04-09T13:44:32;11.82;;;10.93;;
35324;SDS011;35135;47.510;19.036;2023-04-09T13:46:59;12.27;;;11.35;;
35324;SDS011;35135;47.510;19.036;2023-04-09T13:49:24;12.13;;;11.23;;
35324;SDS011;35135;47.510;19.036;2023-04-09T13:51:51;11.77;;;10.85;;
35324;SDS011;35135;47.510;19.036;2023-04-09T13:54:17;11.73;;;10.82;;
35324;SDS011;35135;47.510;19.036;2023-04-09T13:56:43;11.90;;;10.90;;
35324;SDS011;35135;47.510;19.036;2023-04-09T13:59:10;11.32;;;10.43;;
35324;SDS011;35135;47.510;19.036;2023-04-09T14:01:36;11.00;;;10.10;;
35324;SDS011;35135;47.510;19.036;2023-04-09T14:04:02;11.40;;;10.50;;
35324;SDS011;35135;47.510;19.036;2023-04-09T14:06:27;11.43;;;10.52;;
35324;SDS011;35135;47.510;19.036;2023-04-09T14:08:53;10.75;;;9.95;;
35324;SDS011;35135;47.510;19.036;2023-04-09T14:11:19;11.27;;;10.38;;
35324;SDS011;35135;47.510;19.036;2023-04-09T14:13:45;10.95;;;10.05;;
35324;SDS011;35135;47.510;19.036;2023-04-09T14:16:11;10.90;;;10.07;;
35324;SDS011;35135;47.510;19.036;2023-04-09T14:18:36;10.98;;;10.07;;
35324;SDS011;35135;47.510;19.036;2023-04-09T14:21:04;11.05;;;10.15;;
35324;SDS011;35135;47.510;19.036;2023-04-09T14:23:30;10.75;;;9.88;;
35324;SDS011;35135;47.510;19.036;2023-04-09T14:25:56;9.98;;;9.18;;
35324;SDS011;35135;47.510;19.036;2023-04-09T14:28:21;10.55;;;9.73;;
35324;SDS011;35135;47.510;19.036;2023-04-09T14:30:47;10.60;;;9.77;;
35324;SDS011;35135;47.510;19.036;2023-04-09T14:33:13;10.10;;;9.32;;
35324;SDS011;35135;47.510;19.036;2023-04-09T14:35:38;9.90;;;9.20;;
35324;SDS011;35135;47.510;19.036;2023-04-09T14:38:04;10.23;;;9.43;;
35324;SDS011;35135;47.510;19.036;2023-04-09T14:40:30;10.15;;;9.35;;
35324;SDS011;35135;47.510;19.036;2023-04-09T14:42:57;10.07;;;9.27;;
35324;SDS011;35135;47.510;19.036;2023-04-09T14:45:23;9.70;;;8.98;;
35324;SDS011;35135;47.510;19.036;2023-04-09T14:47:48;9.77;;;9.00;;
35324;SDS011;35135;47.510;19.036;2023-04-09T14:50:14;9.77;;;8.98;;